Saint-Zotique, Canada
Current Conditions -  °F | °C
As of 10:00 PM on Saturday 20 Dec 2014 (Local Time) from CYUL Reporting Station
Haze Haze  
Wind Chill: -2°   Ceiling: 700
Heat Index: 10°   Visibility: 4mi
Dew Point:   Wind: 8mph
Humidity: 85%   Direction: 30°NNE
Pressure: 30.37"   Gusts: NA
Location:  45.23°N, 74.25°W
Report Text: CYUL 210300Z 03007KT 4SM BR BKN007 BKN220 M12/M14 A3037 RMK SF6CI1 SLP287
Loading
Personal Weather Stations






























Interactive Weather Map New forecast layout! Learn more

10-Day Weather Forecast

Advertisements
Track Severe Weather on mobile